createdAt,value
2018-11-02T00:01:02.728Z,10.70
2018-11-02T00:03:38.013Z,10.70
2018-11-02T00:06:12.691Z,10.70
2018-11-02T00:08:46.825Z,10.80
2018-11-02T00:11:22.053Z,10.80
2018-11-02T00:13:56.446Z,10.80
2018-11-02T00:16:31.534Z,10.80
2018-11-02T00:19:06.696Z,10.80
2018-11-02T00:21:38.754Z,10.80
2018-11-02T00:24:10.966Z,10.80
2018-11-02T00:26:46.883Z,10.70
2018-11-02T00:29:19.793Z,10.70
2018-11-02T00:31:54.211Z,10.80
2018-11-02T00:34:28.829Z,10.80
2018-11-02T00:37:05.164Z,10.80
2018-11-02T00:39:41.246Z,10.80
2018-11-02T00:42:15.454Z,10.80
2018-11-02T00:44:49.960Z,10.80
2018-11-02T00:47:24.527Z,10.70
2018-11-02T00:49:58.947Z,10.80
2018-11-02T00:52:33.440Z,10.80
2018-11-02T00:55:09.458Z,10.70
2018-11-02T00:57:46.352Z,10.70
2018-11-02T01:00:21.551Z,10.80
2018-11-02T01:02:56.131Z,10.70
2018-11-02T01:05:30.528Z,10.70
2018-11-02T01:08:09.071Z,10.70
2018-11-02T01:10:43.260Z,10.70
2018-11-02T01:13:21.367Z,10.70
2018-11-02T01:15:59.672Z,10.70
2018-11-02T01:18:38.198Z,10.70
2018-11-02T01:21:16.294Z,10.70
2018-11-02T01:23:50.776Z,10.70
2018-11-02T01:26:26.300Z,10.70
2018-11-02T01:29:00.690Z,10.70
2018-11-02T01:31:38.968Z,10.70
2018-11-02T01:34:15.474Z,10.70
2018-11-02T01:36:50.834Z,10.70
2018-11-02T01:39:25.068Z,10.70
2018-11-02T01:42:01.476Z,10.70
2018-11-02T01:44:35.938Z,10.70
2018-11-02T01:47:08.127Z,10.80
2018-11-02T01:49:48.629Z,10.80
2018-11-02T01:52:22.852Z,10.80
2018-11-02T01:54:57.203Z,10.80
2018-11-02T01:57:33.726Z,10.80
2018-11-02T02:00:08.187Z,10.80
2018-11-02T02:02:42.469Z,10.80
2018-11-02T02:05:17.149Z,10.80
2018-11-02T02:07:52.079Z,10.80
2018-11-02T02:10:26.464Z,10.70
2018-11-02T02:13:02.325Z,10.70
2018-11-02T02:15:36.509Z,10.80
2018-11-02T02:18:11.046Z,10.70
2018-11-02T02:20:45.366Z,10.80
2018-11-02T02:23:20.781Z,10.80
2018-11-02T02:25:55.182Z,10.70
2018-11-02T02:28:29.795Z,10.70
2018-11-02T02:31:04.108Z,10.70
2018-11-02T02:33:39.065Z,10.70
2018-11-02T02:36:13.774Z,10.70
2018-11-02T02:41:22.106Z,10.70
2018-11-02T02:44:00.890Z,10.60
2018-11-02T02:46:39.626Z,10.60
2018-11-02T02:49:18.280Z,10.60
2018-11-02T02:51:54.920Z,10.50
2018-11-02T02:54:29.291Z,10.50
2018-11-02T02:57:03.625Z,10.50
2018-11-02T02:59:38.300Z,10.50
2018-11-02T03:02:18.002Z,10.50
2018-11-02T03:04:54.378Z,10.50
2018-11-02T03:07:29.981Z,10.40
2018-11-02T03:10:04.787Z,10.40
2018-11-02T03:12:39.011Z,10.40
2018-11-02T03:15:14.101Z,10.40
2018-11-02T03:17:50.238Z,10.40
2018-11-02T03:20:25.675Z,10.40
2018-11-02T03:22:59.856Z,10.40
2018-11-02T03:25:34.296Z,10.40
2018-11-02T03:28:08.658Z,10.30
2018-11-02T03:30:42.939Z,10.40
2018-11-02T03:33:17.415Z,10.30
2018-11-02T03:35:57.962Z,10.30
2018-11-02T03:38:32.161Z,10.30
2018-11-02T03:41:07.597Z,10.30
2018-11-02T03:43:42.134Z,10.20
2018-11-02T03:46:16.579Z,10.30
2018-11-02T03:48:52.975Z,10.20
2018-11-02T03:51:27.565Z,10.30
2018-11-02T03:54:02.433Z,10.20
2018-11-02T03:56:36.872Z,10.30
2018-11-02T03:59:15.383Z,10.30
2018-11-02T04:01:57.187Z,10.20
2018-11-02T04:04:38.421Z,10.20
2018-11-02T04:07:13.189Z,10.20
2018-11-02T04:09:51.389Z,10.20
2018-11-02T04:12:29.904Z,10.10
2018-11-02T04:15:04.395Z,10.10
2018-11-02T04:17:42.826Z,10.00
2018-11-02T04:20:17.119Z,10.00
2018-11-02T04:22:51.466Z,10.00
2018-11-02T04:25:27.279Z,10.00
2018-11-02T04:28:01.894Z,10.00
2018-11-02T04:30:36.565Z,9.90
2018-11-02T04:33:12.147Z,9.80
2018-11-02T04:35:46.838Z,9.80
2018-11-02T04:38:22.494Z,9.70
2018-11-02T04:41:02.643Z,9.60
2018-11-02T04:43:37.532Z,9.60
2018-11-02T04:46:11.791Z,9.50
2018-11-02T04:48:47.209Z,9.50
2018-11-02T04:51:23.035Z,9.60
2018-11-02T04:53:58.708Z,9.60
2018-11-02T04:56:33.194Z,9.60
2018-11-02T04:59:07.540Z,9.60
2018-11-02T05:01:43.197Z,9.60
2018-11-02T05:04:17.633Z,9.60
2018-11-02T05:06:51.805Z,9.60
2018-11-02T05:09:26.351Z,9.50
2018-11-02T05:12:02.474Z,9.50
2018-11-02T05:14:36.971Z,9.50
2018-11-02T05:17:12.243Z,9.50
2018-11-02T05:19:47.638Z,9.50
2018-11-02T05:22:28.477Z,9.50
2018-11-02T05:25:02.393Z,9.50
2018-11-02T05:27:40.508Z,9.50
2018-11-02T05:30:15.101Z,9.40
2018-11-02T05:32:49.390Z,9.50
2018-11-02T05:35:25.030Z,9.40
2018-11-02T05:37:59.816Z,9.40
2018-11-02T05:40:34.121Z,9.40
2018-11-02T05:43:12.331Z,9.40
2018-11-02T05:45:46.787Z,9.40
2018-11-02T05:48:21.769Z,9.40
2018-11-02T05:50:56.191Z,9.40
2018-11-02T05:53:30.723Z,9.40
2018-11-02T05:56:05.016Z,9.40
2018-11-02T05:58:39.744Z,9.40
2018-11-02T06:01:14.159Z,9.30
2018-11-02T06:03:48.742Z,9.40
2018-11-02T06:06:25.927Z,9.40
2018-11-02T06:09:02.278Z,9.40
2018-11-02T06:11:34.632Z,9.40
2018-11-02T06:14:09.133Z,9.40
2018-11-02T06:16:43.353Z,9.40
2018-11-02T06:19:17.724Z,9.40
2018-11-02T06:21:51.772Z,9.40
2018-11-02T06:24:26.180Z,9.30
2018-11-02T06:27:00.802Z,9.30
2018-11-02T06:29:36.932Z,9.30
2018-11-02T06:32:11.642Z,9.30
2018-11-02T06:34:47.855Z,9.30
2018-11-02T06:37:24.310Z,9.30
2018-11-02T06:40:02.846Z,9.30
2018-11-02T06:42:40.941Z,9.30
2018-11-02T06:45:15.619Z,9.20
2018-11-02T06:47:50.969Z,9.30
2018-11-02T06:50:27.434Z,9.20
2018-11-02T06:53:02.521Z,9.20
2018-11-02T06:55:38.551Z,9.20
2018-11-02T06:58:17.423Z,9.20
2018-11-02T07:00:53.877Z,9.30
2018-11-02T07:03:28.046Z,9.30
2018-11-02T07:06:02.507Z,9.30
2018-11-02T07:08:37.959Z,9.20
2018-11-02T07:11:20.599Z,9.30
2018-11-02T07:13:59.457Z,9.30
2018-11-02T07:16:35.612Z,9.30
2018-11-02T07:19:10.834Z,9.30
2018-11-02T07:21:49.364Z,9.30
2018-11-02T07:24:25.795Z,9.30
2018-11-02T07:27:06.264Z,9.30
2018-11-02T07:29:41.035Z,9.30
2018-11-02T07:32:19.790Z,9.30
2018-11-02T07:34:54.838Z,9.30
2018-11-02T07:37:31.056Z,9.30
2018-11-02T07:42:47.916Z,9.40
2018-11-02T07:45:22.896Z,9.50
2018-11-02T07:47:58.077Z,9.50
2018-11-02T07:50:39.540Z,9.60
2018-11-02T07:53:21.149Z,9.50
2018-11-02T07:55:55.705Z,9.40
2018-11-02T07:58:31.988Z,9.40
2018-11-02T08:01:07.003Z,9.40
2018-11-02T08:03:43.491Z,9.40
2018-11-02T08:06:17.701Z,9.40
2018-11-02T08:08:52.765Z,9.40
2018-11-02T08:11:33.238Z,9.40
2018-11-02T08:14:08.093Z,9.40
2018-11-02T08:16:44.279Z,9.40
2018-11-02T08:19:21.347Z,9.50
2018-11-02T08:22:01.891Z,9.50
2018-11-02T08:24:37.724Z,9.60
2018-11-02T08:27:16.032Z,9.50
2018-11-02T08:29:51.807Z,9.50
2018-11-02T08:32:30.070Z,9.50
2018-11-02T08:35:07.375Z,9.50
2018-11-02T08:37:42.251Z,9.50
2018-11-02T08:40:17.156Z,9.60
2018-11-02T08:42:52.300Z,9.60
2018-11-02T08:45:27.147Z,10.00
2018-11-02T08:48:02.277Z,10.60
2018-11-02T08:50:37.190Z,10.60
2018-11-02T08:53:12.156Z,10.90
2018-11-02T08:55:46.510Z,11.10
2018-11-02T08:58:21.841Z,11.20
2018-11-02T09:00:56.732Z,11.40
2018-11-02T09:03:32.119Z,11.50
2018-11-02T09:06:10.255Z,11.50
2018-11-02T09:08:48.424Z,11.50
2018-11-02T09:11:23.669Z,11.30
2018-11-02T09:13:59.561Z,11.20
2018-11-02T09:16:35.886Z,11.30
2018-11-02T09:19:09.967Z,11.30
2018-11-02T09:21:44.871Z,11.30
2018-11-02T09:24:17.720Z,11.30
2018-11-02T09:26:52.734Z,11.40
2018-11-02T09:29:27.843Z,11.60
2018-11-02T09:32:01.997Z,11.70
2018-11-02T09:34:36.329Z,11.90
2018-11-02T09:37:12.647Z,12.20
2018-11-02T09:39:46.791Z,12.10
2018-11-02T09:42:22.817Z,11.90
2018-11-02T09:44:56.896Z,11.90
2018-11-02T09:47:31.323Z,11.80
2018-11-02T09:50:06.322Z,11.90
2018-11-02T09:52:41.372Z,11.80
2018-11-02T09:55:16.193Z,11.70
2018-11-02T09:57:52.686Z,11.60
2018-11-02T10:00:24.588Z,11.40
2018-11-02T10:03:02.939Z,11.30
2018-11-02T10:05:38.987Z,11.20
2018-11-02T10:08:17.189Z,11.20
2018-11-02T10:10:51.296Z,11.30
2018-11-02T10:13:26.098Z,11.40
2018-11-02T10:16:07.342Z,11.50
2018-11-02T10:18:41.997Z,11.60
2018-11-02T10:21:14.001Z,11.60
2018-11-02T10:23:48.835Z,11.70
2018-11-02T10:26:29.412Z,11.70
2018-11-02T10:29:05.509Z,11.70
2018-11-02T10:31:40.404Z,11.50
2018-11-02T10:34:21.761Z,11.30
2018-11-02T10:36:56.670Z,11.20
2018-11-02T10:39:32.803Z,11.10
2018-11-02T10:42:08.555Z,11.10
2018-11-02T10:44:43.779Z,11.10
2018-11-02T10:47:20.196Z,11.10
2018-11-02T10:49:54.787Z,11.20
2018-11-02T10:52:32.888Z,11.20
2018-11-02T10:55:12.166Z,11.20
2018-11-02T10:57:46.533Z,11.20
2018-11-02T11:00:30.645Z,11.30
2018-11-02T11:03:06.410Z,11.20
2018-11-02T11:05:41.471Z,11.20
2018-11-02T11:08:15.840Z,11.30
2018-11-02T11:10:49.952Z,11.40
2018-11-02T11:13:22.244Z,11.50
2018-11-02T11:15:58.939Z,11.50
2018-11-02T11:18:31.236Z,11.50
2018-11-02T11:21:06.706Z,11.60
2018-11-02T11:23:41.013Z,11.60
2018-11-02T11:26:16.303Z,11.70
2018-11-02T11:28:50.395Z,11.70
2018-11-02T11:31:25.694Z,11.60
2018-11-02T11:34:01.580Z,11.50
2018-11-02T11:36:36.810Z,11.50
2018-11-02T11:39:12.266Z,11.50
2018-11-02T11:41:47.456Z,11.50
2018-11-02T11:44:21.463Z,11.50
2018-11-02T11:47:01.764Z,11.50
2018-11-02T11:49:42.010Z,11.60
2018-11-02T11:52:16.931Z,11.60
2018-11-02T11:54:52.780Z,11.60
2018-11-02T11:57:31.520Z,11.60
2018-11-02T12:00:08.458Z,11.50
2018-11-02T12:02:43.062Z,11.40
2018-11-02T12:05:22.177Z,11.30
2018-11-02T12:07:56.262Z,11.30
2018-11-02T12:10:31.270Z,11.30
2018-11-02T12:13:05.444Z,11.20
2018-11-02T12:15:40.468Z,11.20
2018-11-02T12:18:14.628Z,11.00
2018-11-02T12:20:49.034Z,10.80
2018-11-02T12:23:25.333Z,10.70
2018-11-02T12:25:59.714Z,10.70
2018-11-02T12:28:34.683Z,10.60
2018-11-02T12:31:10.258Z,10.70
2018-11-02T12:33:45.176Z,10.70
2018-11-02T12:36:16.941Z,10.70
2018-11-02T12:38:52.314Z,10.70
2018-11-02T12:41:29.856Z,10.70
2018-11-02T12:44:04.213Z,10.70
2018-11-02T12:46:40.592Z,10.70
2018-11-02T12:49:19.091Z,10.70
2018-11-02T12:52:03.526Z,10.70
2018-11-02T12:54:38.367Z,10.70
2018-11-02T12:57:14.761Z,10.60
2018-11-02T12:59:48.731Z,10.70
2018-11-02T13:02:33.463Z,10.60
2018-11-02T13:10:57.808Z,10.90
2018-11-02T13:13:48.377Z,11.10
2018-11-02T13:23:42.370Z,11.50
2018-11-02T13:44:53.280Z,11.00
2018-11-02T13:47:29.495Z,11.00
2018-11-02T13:50:05.882Z,10.90
2018-11-02T13:52:41.399Z,10.90
2018-11-02T13:55:15.874Z,10.90
2018-11-02T13:57:54.095Z,10.80
2018-11-02T14:00:29.760Z,10.80
2018-11-02T14:03:06.516Z,10.70
2018-11-02T14:05:40.927Z,10.80
2018-11-02T14:08:15.755Z,10.80
2018-11-02T14:10:50.266Z,10.80
2018-11-02T14:13:25.608Z,10.70
2018-11-02T14:16:00.333Z,10.70
2018-11-02T14:18:38.483Z,10.70
2018-11-02T14:21:12.897Z,10.70
2018-11-02T14:23:47.553Z,10.70
2018-11-02T14:26:21.781Z,10.60
2018-11-02T14:28:58.186Z,10.70
2018-11-02T14:31:32.274Z,10.60
2018-11-02T14:34:06.939Z,10.70
2018-11-02T14:36:42.251Z,10.70
2018-11-02T14:39:17.606Z,10.70
2018-11-02T14:41:51.833Z,10.70
2018-11-02T14:44:27.086Z,10.70
2018-11-02T14:47:09.238Z,10.70
2018-11-02T14:49:44.250Z,10.70
2018-11-02T14:52:18.261Z,10.70
2018-11-02T14:54:53.556Z,10.60
2018-11-02T14:57:28.486Z,10.50
2018-11-02T15:00:03.927Z,10.50
2018-11-02T15:02:41.094Z,10.40
2018-11-02T15:07:55.072Z,10.40
2018-11-02T15:10:31.473Z,10.30
2018-11-02T15:13:06.370Z,10.20
2018-11-02T15:15:40.890Z,10.20
2018-11-02T15:18:17.269Z,10.10
2018-11-02T15:20:51.957Z,10.00
2018-11-02T15:23:24.030Z,10.00
2018-11-02T15:25:59.110Z,10.00
2018-11-02T15:28:39.610Z,10.00
2018-11-02T15:31:17.774Z,9.90
2018-11-02T15:33:53.290Z,9.90
2018-11-02T15:36:28.242Z,9.80
2018-11-02T15:39:03.850Z,9.70
2018-11-02T15:41:40.243Z,9.70
2018-11-02T15:44:14.609Z,9.60
2018-11-02T15:46:49.412Z,9.60
2018-11-02T15:49:25.199Z,9.60
2018-11-02T15:51:59.383Z,9.50
2018-11-02T15:54:34.594Z,9.40
2018-11-02T15:57:10.713Z,9.30
2018-11-02T15:59:45.616Z,9.20
2018-11-02T16:02:19.917Z,9.10
2018-11-02T16:04:55.625Z,9.00
2018-11-02T16:07:30.618Z,8.90
2018-11-02T16:10:07.565Z,8.80
2018-11-02T16:12:49.227Z,8.90
2018-11-02T16:15:24.237Z,8.80
2018-11-02T16:18:02.792Z,8.70
2018-11-02T16:20:38.058Z,8.70
2018-11-02T16:23:12.613Z,8.60
2018-11-02T16:25:47.618Z,8.50
2018-11-02T16:28:24.692Z,8.40
2018-11-02T16:31:04.400Z,8.30
2018-11-02T16:33:45.549Z,8.10
2018-11-02T16:36:17.800Z,8.10
2018-11-02T16:38:55.080Z,8.00
2018-11-02T16:41:35.888Z,8.00
2018-11-02T16:44:14.785Z,7.90
2018-11-02T16:46:48.954Z,7.90
2018-11-02T16:49:27.477Z,7.90
2018-11-02T16:52:06.453Z,7.80
2018-11-02T16:54:40.959Z,7.70
2018-11-02T16:57:15.243Z,7.70
2018-11-02T16:59:49.667Z,7.60
2018-11-02T17:02:27.826Z,7.60
2018-11-02T17:05:01.881Z,7.50
2018-11-02T17:07:40.689Z,7.50
2018-11-02T17:10:15.699Z,7.40
2018-11-02T17:12:50.459Z,7.30
2018-11-02T17:15:24.779Z,7.20
2018-11-02T17:18:01.192Z,7.20
2018-11-02T17:20:36.525Z,7.20
2018-11-02T17:23:12.026Z,7.10
2018-11-02T17:25:52.637Z,7.10
2018-11-02T17:28:27.460Z,7.00
2018-11-02T17:31:02.147Z,7.00
2018-11-02T17:33:40.400Z,7.00
2018-11-02T17:36:17.246Z,7.00
2018-11-02T17:38:51.694Z,6.90
2018-11-02T17:41:27.178Z,6.90
2018-11-02T17:44:01.647Z,6.90
2018-11-02T17:46:38.012Z,6.80
2018-11-02T17:49:19.232Z,6.80
2018-11-02T17:52:00.226Z,6.70
2018-11-02T17:54:35.382Z,6.70
2018-11-02T17:57:11.181Z,6.60
2018-11-02T17:59:47.141Z,6.60
2018-11-02T18:02:27.563Z,6.50
2018-11-02T18:05:07.093Z,6.50
2018-11-02T18:07:42.547Z,6.40
2018-11-02T18:10:17.196Z,6.40
2018-11-02T18:12:56.076Z,6.40
2018-11-02T18:15:31.881Z,6.40
2018-11-02T18:18:06.616Z,6.30
2018-11-02T18:20:43.054Z,6.30
2018-11-02T18:23:17.533Z,6.20
2018-11-02T18:25:51.934Z,6.20
2018-11-02T18:28:26.383Z,6.20
2018-11-02T18:31:12.994Z,6.20
2018-11-02T18:53:34.395Z,6.10
2018-11-02T18:56:13.627Z,6.10
2018-11-02T18:59:06.049Z,6.10
2018-11-02T19:01:43.458Z,6.00
2018-11-02T19:04:32.919Z,6.00
2018-11-02T19:07:07.187Z,6.10
2018-11-02T19:09:56.830Z,6.10
2018-11-02T19:12:36.045Z,6.10
2018-11-02T19:15:18.703Z,6.00
2018-11-02T19:17:53.245Z,5.90
2018-11-02T19:20:36.528Z,5.80
2018-11-02T19:23:26.028Z,5.70
2018-11-02T19:40:50.735Z,5.60
2018-11-02T19:50:23.023Z,5.50
2018-11-02T19:58:56.844Z,5.40
2018-11-02T20:10:15.472Z,5.30
2018-11-02T20:15:57.750Z,5.30
2018-11-02T21:35:51.949Z,4.80
2018-11-02T21:38:26.932Z,4.70
2018-11-02T21:41:07.544Z,4.70
2018-11-02T21:43:45.769Z,4.70
2018-11-02T21:46:20.689Z,4.70
2018-11-02T21:48:55.578Z,4.60
2018-11-02T21:51:31.434Z,4.60
2018-11-02T21:54:06.048Z,4.60
2018-11-02T21:56:41.687Z,4.60
2018-11-02T21:59:15.999Z,4.50
2018-11-02T22:01:54.177Z,4.50
2018-11-02T22:04:41.572Z,4.50
2018-11-02T22:07:24.523Z,4.50
2018-11-02T22:10:03.727Z,4.50
2018-11-02T22:12:43.579Z,4.60
2018-11-02T22:15:24.567Z,4.70
2018-11-02T22:18:07.442Z,4.70
2018-11-02T22:20:48.229Z,4.60
2018-11-02T22:23:25.541Z,4.60
2018-11-02T22:26:06.658Z,4.60
2018-11-02T22:28:53.468Z,4.60
2018-11-02T22:31:27.886Z,4.50
2018-11-02T22:34:03.415Z,4.50
2018-11-02T22:36:37.838Z,4.50
2018-11-02T22:39:14.563Z,4.50
2018-11-02T22:41:51.024Z,4.40
2018-11-02T22:44:25.803Z,4.40
2018-11-02T22:47:04.648Z,4.30
2018-11-02T22:49:40.052Z,4.30
2018-11-02T22:52:17.031Z,4.30
2018-11-02T22:55:02.852Z,4.30
2018-11-02T22:57:43.478Z,4.30
2018-11-02T23:03:05.249Z,4.20
2018-11-02T23:05:40.236Z,4.20
2018-11-02T23:08:16.956Z,4.20
2018-11-02T23:10:57.534Z,4.20
2018-11-02T23:13:32.849Z,4.20
2018-11-02T23:16:08.665Z,4.20
2018-11-02T23:18:43.477Z,4.20
2018-11-02T23:21:26.609Z,4.20
2018-11-02T23:24:10.157Z,4.20
2018-11-02T23:27:03.594Z,4.20
2018-11-02T23:29:39.156Z,4.20
2018-11-02T23:32:15.605Z,4.10
2018-11-02T23:37:38.085Z,4.10
2018-11-02T23:40:14.752Z,4.10
2018-11-02T23:42:51.991Z,4.10
2018-11-02T23:45:28.513Z,4.00
2018-11-02T23:48:08.051Z,4.00
2018-11-02T23:50:49.386Z,4.10
2018-11-02T23:53:25.274Z,4.00
2018-11-02T23:56:02.609Z,4.00
2018-11-02T23:58:37.007Z,4.00
